Icarus — D5AX3 — position and weather

sailwx.info

Track history (hours):
 
Tides and Currents Weather Stations Pressure Air Temp Water Temp Dewpoint Dewpoint Depression Visibility Wind Speed Wind Dir Waves Ship Positions

Icarus

Last reported at 2015-Jun-17 14:33 UTC. Time now 2015-Jul-03 02:38 UTC.
Position N 29°05' W 016°38'.
Warning: this ship's position is 15 days out of date.

Length 225 m; draft 7.6 m.

Type: Cargo ship. MMSI: 636015464.

Date/timePositionNaut miles runAvg speedWind from/ knotsBaromVisibWave heightAir tempDewpointWater temp
2015-Jun-17 14:33N 29°05' W 016°38'3114.2
2015-Jun-17 12:25N 29°24' W 016°10'1614.1
2015-Jun-17 11:17N 29°34' W 015°56'1114.1
2015-Jun-17 10:31N 29°41' W 015°47'1414.2
2015-Jun-17 09:31N 29°50' W 015°34'1414.2
2015-Jun-17 08:33N 29°59' W 015°23'1514.4
2015-Jun-17 07:30N 30°09' W 015°09'1414.3
2015-Jun-17 06:33N 30°18' W 014°57'1814.5
2015-Jun-17 05:21N 30°29' W 014°42'56413.8
2015-Jun-15 12:33N 35°58' W 005°34'1010.1
2015-Jun-15 11:33N 36°03' W 005°23'5 0.9
2015-Jun-15 05:31N 36°09' W 005°23'0 0.0
2015-Jun-15 04:30N 36°09' W 005°23'0 0.1
2015-Jun-15 03:16N 36°09' W 005°23'0 0.1
2015-Jun-15 02:28N 36°09' W 005°23'0 0.1
2015-Jun-15 01:31N 36°09' W 005°23'0 0.0
2015-Jun-14 22:30N 36°09' W 005°23'0 0.0
2015-Jun-14 21:33N 36°09' W 005°22'0 0.5
2015-Jun-14 20:33N 36°08' W 005°23'5 5.4
2015-Jun-14 19:33N 36°06' W 005°17'12212.2
2015-Jun-14 09:33N 36°22' W 002°48'1312.8
2015-Jun-14 08:33N 36°23' W 002°32'1312.6
2015-Jun-14 07:30N 36°25' W 002°15'1512.8
2015-Jun-14 06:21N 36°28' W 001°57'1312.8
2015-Jun-14 05:18N 36°30' W 001°41'1112.9
2015-Jun-14 04:29N 36°32' W 001°28'3012.7
2015-Jun-14 02:09N 36°37' W 000°51'813.0
2015-Jun-14 01:34N 36°38' W 000°42'1411.8
2015-Jun-14 00:24N 36°40' W 000°25'56113.1
2015-Jun-12 05:26N 37°26' E 011°15'1214.1
2015-Jun-12 04:34N 37°20' E 011°29'1414.3
2015-Jun-12 03:34N 37°14' E 011°45'1414.5
2015-Jun-12 02:34N 37°07' E 012°01'1514.8
2015-Jun-12 01:34N 37°02' E 012°18'1514.5
2015-Jun-12 00:34N 36°58' E 012°36'1514.5
2015-Jun-11 23:33N 36°53' E 012°53'1514.6
2015-Jun-11 22:34N 36°49' E 013°11'1414.4
2015-Jun-11 21:33N 36°44' E 013°28'1414.0
2015-Jun-11 20:34N 36°39' E 013°44'1414.5
2015-Jun-11 19:34N 36°36' E 014°01'1514.5
2015-Jun-11 18:34N 36°33' E 014°19'1414.2
2015-Jun-11 17:34N 36°29' E 014°36'1513.5
2015-Jun-11 16:29N 36°32' E 014°54'1414.1
2015-Jun-11 15:28N 36°37' E 015°11'1513.5
2015-Jun-11 14:20N 36°40' E 015°29'4113.8
2015-Jun-11 11:24N 36°35' E 016°19'43113.9
2015-Jun-10 04:24N 35°46' E 025°09'  
Track history (hours):
 
Tides and Currents Weather Stations Pressure Air Temp Water Temp Dewpoint Dewpoint Depression Visibility Wind Speed Wind Dir Waves Ship Positions

Icarus

Last reported at 2015-Jun-17 14:33 UTC. Time now 2015-Jul-03 02:38 UTC.
Position N 29°05' W 016°38'.
Warning: this ship's position is 15 days out of date.

Length 225 m; draft 7.6 m.

Type: Cargo ship. MMSI: 636015464.

Date/timePositionNaut miles runAvg speedWind from/ knotsBaromVisibWave heightAir tempDewpointWater temp
2015-Jun-17 14:33N 29°05' W 016°38'3114.2
2015-Jun-17 12:25N 29°24' W 016°10'1614.1
2015-Jun-17 11:17N 29°34' W 015°56'1114.1
2015-Jun-17 10:31N 29°41' W 015°47'1414.2
2015-Jun-17 09:31N 29°50' W 015°34'1414.2
2015-Jun-17 08:33N 29°59' W 015°23'1514.4
2015-Jun-17 07:30N 30°09' W 015°09'1414.3
2015-Jun-17 06:33N 30°18' W 014°57'1814.5
2015-Jun-17 05:21N 30°29' W 014°42'56413.8
2015-Jun-15 12:33N 35°58' W 005°34'1010.1
2015-Jun-15 11:33N 36°03' W 005°23'5 0.9
2015-Jun-15 05:31N 36°09' W 005°23'0 0.0
2015-Jun-15 04:30N 36°09' W 005°23'0 0.1
2015-Jun-15 03:16N 36°09' W 005°23'0 0.1
2015-Jun-15 02:28N 36°09' W 005°23'0 0.1
2015-Jun-15 01:31N 36°09' W 005°23'0 0.0
2015-Jun-14 22:30N 36°09' W 005°23'0 0.0
2015-Jun-14 21:33N 36°09' W 005°22'0 0.5
2015-Jun-14 20:33N 36°08' W 005°23'5 5.4
2015-Jun-14 19:33N 36°06' W 005°17'12212.2
2015-Jun-14 09:33N 36°22' W 002°48'1312.8
2015-Jun-14 08:33N 36°23' W 002°32'1312.6
2015-Jun-14 07:30N 36°25' W 002°15'1512.8
2015-Jun-14 06:21N 36°28' W 001°57'1312.8
2015-Jun-14 05:18N 36°30' W 001°41'1112.9
2015-Jun-14 04:29N 36°32' W 001°28'3012.7
2015-Jun-14 02:09N 36°37' W 000°51'813.0
2015-Jun-14 01:34N 36°38' W 000°42'1411.8
2015-Jun-14 00:24N 36°40' W 000°25'56113.1
2015-Jun-12 05:26N 37°26' E 011°15'1214.1
2015-Jun-12 04:34N 37°20' E 011°29'1414.3
2015-Jun-12 03:34N 37°14' E 011°45'1414.5
2015-Jun-12 02:34N 37°07' E 012°01'1514.8
2015-Jun-12 01:34N 37°02' E 012°18'1514.5
2015-Jun-12 00:34N 36°58' E 012°36'1514.5
2015-Jun-11 23:33N 36°53' E 012°53'1514.6
2015-Jun-11 22:34N 36°49' E 013°11'1414.4
2015-Jun-11 21:33N 36°44' E 013°28'1414.0
2015-Jun-11 20:34N 36°39' E 013°44'1414.5
2015-Jun-11 19:34N 36°36' E 014°01'1514.5
2015-Jun-11 18:34N 36°33' E 014°19'1414.2
2015-Jun-11 17:34N 36°29' E 014°36'1513.5
2015-Jun-11 16:29N 36°32' E 014°54'1414.1
2015-Jun-11 15:28N 36°37' E 015°11'1513.5
2015-Jun-11 14:20N 36°40' E 015°29'4113.8
2015-Jun-11 11:24N 36°35' E 016°19'43113.9
2015-Jun-10 04:24N 35°46' E 025°09'  

Dump ship's entire track history